Baton Rouge, LA (70807)

12:37 PM CDT on September 01, 2015 (GMT -0500)
Baton Rouge Metro-Ryan | | Change Station
CLOSE
Current Station
Airport
Location: Baton Rouge,
Elevation: 69 ft
Nearby Weather Stations

Elev 69 ft 30.54 °N, 91.15 °W | Updated 44 minutes ago

Scattered Clouds
Scattered Clouds
88 °F
Feels Like 93 °F
N
5
Wind Variable Wind from Variable

Today
High -- | Low -- °F
--% Chance of Precip.
Yesterday
High -- | Low -- °F
Precip. -- in
6:41 AM 7:27 PM
Waning Gibbous, 87% visible
Pressure 30.07 in
Visibility 10.0 miles
Clouds Scattered Clouds 3500 ft
Heat Index 93 °F
Dew Point 70 °F
Humidity 55%
Rainfall 0.00 in
Snow Depth Not available.
UV 9 out of 12
Pollen 8.10 out of 12
Air Quality Not available.
Flu Activity Not available.
METAR KBTR 011653Z VRB04KT 10SM SCT035 31/21 A3007 RMK AO2 SLP182 T03110211
Pressure 30.07 in
Visibility 10.0 miles
Clouds Scattered Clouds 3500 ft
Heat Index 93 °F
Dew Point 70 °F
Humidity 55%
Rainfall 0.00 in
Snow Depth Not available.
UV 9 out of 12
Pollen 8.10 out of 12
Air Quality Not available.
Flu Activity Not available.
METAR KBTR 011653Z VRB04KT 10SM SCT035 31/21 A3007 RMK AO2 SLP182 T03110211

10-Day Weather Forecast

×

Almanac

Astronomy

Sep. 01, 2015 Rise Set
Actual Time
Civil Twilight
Nautical Twilight
Astronomical Twilight
Moon
Length of Visible Light
Length of Day
Tomorrow will be .
, % of the Moon is Illuminated

Today's Extremes

State Highs State Lows

Community

WunderPhotos

Upload Photos

1,851,568 photos uploaded!

WunderBlogs® & News

Nearby

Air Quality

  Air Quality AQ Index Pollutant
Not available.

Snow Depth

Station Depth Elevation

Earthquake Activity

City Distance Mag. Time & Date
Minimum magnitude displayed is 2.5.

Coastal Water Temperatures

Place Temperature

Stations

Nearby Weather Stations

Station Location Temp. Windchill Dew Point Humidity Wind Precip. Elev Updated Type